sensor_id;sensor_type;location;lat;lon;timestamp;pressure;altitude;pressure_sealevel;temperature;humidity
80128;BME280;69440;52.118;5.408;2024-03-23T00:53:58;101153.25;;;7.98;100.00
80128;BME280;69440;52.118;5.408;2024-03-23T00:56:31;101142.53;;;7.98;100.00
80128;BME280;69440;52.118;5.408;2024-03-23T00:58:57;101136.41;;;7.96;100.00
80128;BME280;69440;52.118;5.408;2024-03-23T01:01:23;101155.16;;;7.95;100.00
80128;BME280;69440;52.118;5.408;2024-03-23T01:03:48;101140.09;;;7.92;100.00
80128;BME280;69440;52.118;5.408;2024-03-23T01:06:14;101141.03;;;7.91;100.00
80128;BME280;69440;52.118;5.408;2024-03-23T01:08:39;101146.47;;;7.90;100.00
80128;BME280;69440;52.118;5.408;2024-03-23T01:11:05;101139.38;;;7.89;100.00
80128;BME280;69440;52.118;5.408;2024-03-23T01:13:31;101125.88;;;7.92;100.00
80128;BME280;69440;52.118;5.408;2024-03-23T01:15:57;101135.69;;;7.91;100.00
80128;BME280;69440;52.118;5.408;2024-03-23T01:18:24;101124.19;;;7.89;100.00
80128;BME280;69440;52.118;5.408;2024-03-23T01:20:54;101119.72;;;7.90;100.00
80128;BME280;69440;52.118;5.408;2024-03-23T01:23:19;101121.50;;;7.89;100.00
80128;BME280;69440;52.118;5.408;2024-03-23T01:25:51;101111.59;;;7.91;100.00
80128;BME280;69440;52.118;5.408;2024-03-23T01:28:17;101112.63;;;7.89;100.00
80128;BME280;69440;52.118;5.408;2024-03-23T01:30:43;101109.06;;;7.88;100.00
80128;BME280;69440;52.118;5.408;2024-03-23T01:33:09;101100.03;;;7.91;100.00
80128;BME280;69440;52.118;5.408;2024-03-23T01:35:34;101103.66;;;7.90;100.00
80128;BME280;69440;52.118;5.408;2024-03-23T01:38:00;101097.44;;;7.89;100.00
80128;BME280;69440;52.118;5.408;2024-03-23T01:40:25;101094.88;;;7.86;100.00
80128;BME280;69440;52.118;5.408;2024-03-23T01:42:56;101085.13;;;7.85;100.00
80128;BME280;69440;52.118;5.408;2024-03-23T01:45:22;101074.75;;;7.77;100.00
80128;BME280;69440;52.118;5.408;2024-03-23T01:47:50;101082.13;;;7.72;100.00
80128;BME280;69440;52.118;5.408;2024-03-23T01:50:16;101074.38;;;7.66;100.00
80128;BME280;69440;52.118;5.408;2024-03-23T01:52:42;101079.03;;;7.61;100.00
80128;BME280;69440;52.118;5.408;2024-03-23T01:55:08;101074.81;;;7.56;100.00
80128;BME280;69440;52.118;5.408;2024-03-23T01:57:36;101076.69;;;7.54;100.00
80128;BME280;69440;52.118;5.408;2024-03-23T02:00:01;101074.28;;;7.47;100.00
80128;BME280;69440;52.118;5.408;2024-03-23T02:02:27;101072.88;;;7.39;100.00
80128;BME280;69440;52.118;5.408;2024-03-23T02:04:58;101079.22;;;7.36;100.00
80128;BME280;69440;52.118;5.408;2024-03-23T02:07:24;101076.63;;;7.35;100.00
80128;BME280;69440;52.118;5.408;2024-03-23T02:09:53;101079.28;;;7.35;100.00
80128;BME280;69440;52.118;5.408;2024-03-23T02:12:20;101074.16;;;7.29;100.00
80128;BME280;69440;52.118;5.408;2024-03-23T02:14:46;101078.91;;;7.22;100.00
80128;BME280;69440;52.118;5.408;2024-03-23T02:17:12;101076.38;;;7.19;100.00
80128;BME280;69440;52.118;5.408;2024-03-23T02:19:40;101068.59;;;7.13;100.00
80128;BME280;69440;52.118;5.408;2024-03-23T02:22:06;101081.16;;;7.11;100.00
80128;BME280;69440;52.118;5.408;2024-03-23T02:24:31;101068.84;;;7.07;100.00
80128;BME280;69440;52.118;5.408;2024-03-23T02:26:59;101069.88;;;7.03;100.00
80128;BME280;69440;52.118;5.408;2024-03-23T02:29:25;101067.34;;;7.00;100.00
80128;BME280;69440;52.118;5.408;2024-03-23T02:31:52;101066.66;;;6.95;100.00
80128;BME280;69440;52.118;5.408;2024-03-23T02:34:18;101055.44;;;6.87;100.00
80128;BME280;69440;52.118;5.408;2024-03-23T02:36:44;101044.00;;;6.83;100.00
80128;BME280;69440;52.118;5.408;2024-03-23T02:39:09;101057.47;;;6.80;100.00
80128;BME280;69440;52.118;5.408;2024-03-23T02:41:36;101059.41;;;6.76;100.00
80128;BME280;69440;52.118;5.408;2024-03-23T02:44:02;101051.47;;;6.75;100.00
80128;BME280;69440;52.118;5.408;2024-03-23T02:46:30;101064.91;;;6.72;100.00
80128;BME280;69440;52.118;5.408;2024-03-23T02:49:06;101064.03;;;6.71;100.00
80128;BME280;69440;52.118;5.408;2024-03-23T02:51:32;101056.09;;;6.70;100.00
80128;BME280;69440;52.118;5.408;2024-03-23T02:53:58;101057.00;;;6.69;100.00
80128;BME280;69440;52.118;5.408;2024-03-23T02:56:23;101060.63;;;6.68;100.00
80128;BME280;69440;52.118;5.408;2024-03-23T02:58:49;101064.34;;;6.64;100.00
80128;BME280;69440;52.118;5.408;2024-03-23T03:01:14;101058.13;;;6.63;100.00
80128;BME280;69440;52.118;5.408;2024-03-23T03:03:40;101055.66;;;6.59;100.00
80128;BME280;69440;52.118;5.408;2024-03-23T03:06:08;101053.91;;;6.58;100.00
80128;BME280;69440;52.118;5.408;2024-03-23T03:08:34;101062.97;;;6.53;100.00
80128;BME280;69440;52.118;5.408;2024-03-23T03:11:02;101059.50;;;6.51;100.00
80128;BME280;69440;52.118;5.408;2024-03-23T03:13:28;101063.09;;;6.50;100.00
80128;BME280;69440;52.118;5.408;2024-03-23T03:15:53;101060.53;;;6.47;100.00
80128;BME280;69440;52.118;5.408;2024-03-23T03:18:19;101052.66;;;6.44;100.00
80128;BME280;69440;52.118;5.408;2024-03-23T03:20:44;101060.81;;;6.40;100.00
80128;BME280;69440;52.118;5.408;2024-03-23T03:23:10;101057.34;;;6.38;100.00
80128;BME280;69440;52.118;5.408;2024-03-23T03:25:36;101057.38;;;6.36;100.00
80128;BME280;69440;52.118;5.408;2024-03-23T03:28:02;101058.31;;;6.35;100.00
80128;BME280;69440;52.118;5.408;2024-03-23T03:30:28;101059.19;;;6.36;100.00
80128;BME280;69440;52.118;5.408;2024-03-23T03:32:54;101049.69;;;6.29;100.00
80128;BME280;69440;52.118;5.408;2024-03-23T03:35:20;101044.53;;;6.24;100.00
80128;BME280;69440;52.118;5.408;2024-03-23T03:37:48;101046.69;;;6.14;100.00
80128;BME280;69440;52.118;5.408;2024-03-23T03:40:14;101039.59;;;6.13;100.00
80128;BME280;69440;52.118;5.408;2024-03-23T03:42:42;101043.16;;;6.14;100.00
80128;BME280;69440;52.118;5.408;2024-03-23T03:45:08;101049.50;;;6.10;100.00
80128;BME280;69440;52.118;5.408;2024-03-23T03:47:33;101035.28;;;6.09;100.00
80128;BME280;69440;52.118;5.408;2024-03-23T03:50:02;101032.63;;;6.09;100.00
80128;BME280;69440;52.118;5.408;2024-03-23T03:52:30;101032.66;;;6.08;100.00
80128;BME280;69440;52.118;5.408;2024-03-23T03:55:01;101028.50;;;6.01;100.00
80128;BME280;69440;52.118;5.408;2024-03-23T03:57:27;101026.88;;;5.97;100.00
80128;BME280;69440;52.118;5.408;2024-03-23T03:59:53;101035.97;;;5.91;100.00
80128;BME280;69440;52.118;5.408;2024-03-23T04:02:18;101026.19;;;5.91;100.00
80128;BME280;69440;52.118;5.408;2024-03-23T04:04:44;101033.44;;;5.86;100.00
80128;BME280;69440;52.118;5.408;2024-03-23T04:07:12;101032.69;;;5.83;100.00
80128;BME280;69440;52.118;5.408;2024-03-23T04:09:38;101029.09;;;5.84;100.00
80128;BME280;69440;52.118;5.408;2024-03-23T04:12:06;101025.50;;;5.85;100.00
80128;BME280;69440;52.118;5.408;2024-03-23T04:14:31;101028.38;;;5.79;100.00
80128;BME280;69440;52.118;5.408;2024-03-23T04:16:57;101022.22;;;5.77;100.00
80128;BME280;69440;52.118;5.408;2024-03-23T04:19:22;101016.13;;;5.73;100.00
80128;BME280;69440;52.118;5.408;2024-03-23T04:21:48;101011.78;;;5.71;100.00
80128;BME280;69440;52.118;5.408;2024-03-23T04:24:13;101014.63;;;5.66;100.00
80128;BME280;69440;52.118;5.408;2024-03-23T04:26:44;101013.75;;;5.66;100.00
80128;BME280;69440;52.118;5.408;2024-03-23T04:29:09;101016.47;;;5.64;100.00
80128;BME280;69440;52.118;5.408;2024-03-23T04:31:35;101014.78;;;5.61;100.00
80128;BME280;69440;52.118;5.408;2024-03-23T04:34:01;101014.03;;;5.58;100.00
80128;BME280;69440;52.118;5.408;2024-03-23T04:36:27;101013.28;;;5.54;100.00
80128;BME280;69440;52.118;5.408;2024-03-23T04:38:52;101015.88;;;5.56;100.00
80128;BME280;69440;52.118;5.408;2024-03-23T04:41:18;101015.78;;;5.59;100.00
80128;BME280;69440;52.118;5.408;2024-03-23T04:43:44;101006.97;;;5.57;100.00
80128;BME280;69440;52.118;5.408;2024-03-23T04:46:09;101012.34;;;5.55;100.00
80128;BME280;69440;52.118;5.408;2024-03-23T04:48:38;101021.38;;;5.51;100.00
80128;BME280;69440;52.118;5.408;2024-03-23T04:51:04;101015.16;;;5.51;100.00
80128;BME280;69440;52.118;5.408;2024-03-23T04:53:29;101019.66;;;5.49;100.00
80128;BME280;69440;52.118;5.408;2024-03-23T04:55:56;101016.25;;;5.45;100.00
80128;BME280;69440;52.118;5.408;2024-03-23T04:58:25;101006.56;;;5.43;100.00
80128;BME280;69440;52.118;5.408;2024-03-23T05:00:57;101010.31;;;5.37;100.00
80128;BME280;69440;52.118;5.408;2024-03-23T05:03:23;101007.59;;;5.39;100.00
80128;BME280;69440;52.118;5.408;2024-03-23T05:05:49;101016.56;;;5.36;100.00
80128;BME280;69440;52.118;5.408;2024-03-23T05:08:15;101005.91;;;5.36;100.00
80128;BME280;69440;52.118;5.408;2024-03-23T05:10:42;101010.44;;;5.34;100.00
80128;BME280;69440;52.118;5.408;2024-03-23T05:13:08;101022.13;;;5.30;100.00
80128;BME280;69440;52.118;5.408;2024-03-23T05:15:34;101007.88;;;5.31;100.00
80128;BME280;69440;52.118;5.408;2024-03-23T05:18:00;101012.34;;;5.30;100.00
80128;BME280;69440;52.118;5.408;2024-03-23T05:20:29;101016.09;;;5.25;100.00
80128;BME280;69440;52.118;5.408;2024-03-23T05:22:55;101016.03;;;5.26;100.00
80128;BME280;69440;52.118;5.408;2024-03-23T05:25:20;101012.50;;;5.26;100.00
80128;BME280;69440;52.118;5.408;2024-03-23T05:27:46;101012.72;;;5.18;100.00
80128;BME280;69440;52.118;5.408;2024-03-23T05:30:11;101013.66;;;5.17;100.00
80128;BME280;69440;52.118;5.408;2024-03-23T05:32:39;101018.00;;;5.21;100.00
80128;BME280;69440;52.118;5.408;2024-03-23T05:35:09;101023.16;;;5.26;100.00
80128;BME280;69440;52.118;5.408;2024-03-23T05:37:37;101020.50;;;5.26;100.00
80128;BME280;69440;52.118;5.408;2024-03-23T05:40:03;101022.22;;;5.27;100.00
80128;BME280;69440;52.118;5.408;2024-03-23T05:42:29;101018.53;;;5.31;100.00
80128;BME280;69440;52.118;5.408;2024-03-23T05:44:55;101021.78;;;5.39;100.00
80128;BME280;69440;52.118;5.408;2024-03-23T05:47:20;101019.19;;;5.38;100.00
80128;BME280;69440;52.118;5.408;2024-03-23T05:49:46;101016.47;;;5.39;100.00
80128;BME280;69440;52.118;5.408;2024-03-23T05:52:12;101016.31;;;5.44;100.00
80128;BME280;69440;52.118;5.408;2024-03-23T05:54:38;101015.25;;;5.48;100.00
80128;BME280;69440;52.118;5.408;2024-03-23T05:57:03;101013.47;;;5.48;100.00
80128;BME280;69440;52.118;5.408;2024-03-23T05:59:29;101013.47;;;5.48;100.00
80128;BME280;69440;52.118;5.408;2024-03-23T06:01:55;101004.59;;;5.48;100.00
80128;BME280;69440;52.118;5.408;2024-03-23T06:04:23;101013.47;;;5.48;100.00
80128;BME280;69440;52.118;5.408;2024-03-23T06:06:48;101006.41;;;5.47;100.00
80128;BME280;69440;52.118;5.408;2024-03-23T06:09:14;101013.53;;;5.47;100.00
80128;BME280;69440;52.118;5.408;2024-03-23T06:11:39;101011.84;;;5.44;100.00
80128;BME280;69440;52.118;5.408;2024-03-23T06:14:05;101006.50;;;5.44;100.00
80128;BME280;69440;52.118;5.408;2024-03-23T06:16:31;101015.53;;;5.40;100.00
80128;BME280;69440;52.118;5.408;2024-03-23T06:18:56;101016.41;;;5.41;100.00
80128;BME280;69440;52.118;5.408;2024-03-23T06:21:22;101012.06;;;5.38;100.00
80128;BME280;69440;52.118;5.408;2024-03-23T06:23:52;101008.53;;;5.38;100.00
80128;BME280;69440;52.118;5.408;2024-03-23T06:26:18;101009.44;;;5.37;100.00
80128;BME280;69440;52.118;5.408;2024-03-23T06:28:44;100999.66;;;5.37;100.00
80128;BME280;69440;52.118;5.408;2024-03-23T06:31:10;100997.88;;;5.38;100.00
80128;BME280;69440;52.118;5.408;2024-03-23T06:33:36;100997.75;;;5.41;100.00
80128;BME280;69440;52.118;5.408;2024-03-23T06:36:04;100999.38;;;5.45;100.00
80128;BME280;69440;52.118;5.408;2024-03-23T06:38:29;101000.06;;;5.51;100.00
80128;BME280;69440;52.118;5.408;2024-03-23T06:40:55;100987.53;;;5.53;100.00
80128;BME280;69440;52.118;5.408;2024-03-23T06:43:23;100998.81;;;5.61;100.00
80128;BME280;69440;52.118;5.408;2024-03-23T06:45:53;101002.97;;;5.69;100.00
80128;BME280;69440;52.118;5.408;2024-03-23T06:48:19;100987.78;;;5.71;100.00
80128;BME280;69440;52.118;5.408;2024-03-23T06:50:45;100988.53;;;5.74;100.00
80128;BME280;69440;52.118;5.408;2024-03-23T06:53:12;100990.09;;;5.80;100.00
80128;BME280;69440;52.118;5.408;2024-03-23T06:55:38;100988.97;;;5.87;100.00
80128;BME280;69440;52.118;5.408;2024-03-23T06:58:03;100993.19;;;5.94;100.00
80128;BME280;69440;52.118;5.408;2024-03-23T07:00:29;100991.16;;;6.01;100.00
80128;BME280;69440;52.118;5.408;2024-03-23T07:02:55;100990.84;;;6.08;100.00
80128;BME280;69440;52.118;5.408;2024-03-23T07:05:26;100995.13;;;6.14;100.00
80128;BME280;69440;52.118;5.408;2024-03-23T07:07:51;100999.22;;;6.22;100.00
80128;BME280;69440;52.118;5.408;2024-03-23T07:10:17;100999.84;;;6.29;100.00
80128;BME280;69440;52.118;5.408;2024-03-23T07:12:43;100994.31;;;6.34;100.00
80128;BME280;69440;52.118;5.408;2024-03-23T07:15:08;100998.53;;;6.39;100.00
80128;BME280;69440;52.118;5.408;2024-03-23T07:17:34;100984.94;;;6.47;100.00
80128;BME280;69440;52.118;5.408;2024-03-23T07:20:03;100992.69;;;6.53;100.00
80128;BME280;69440;52.118;5.408;2024-03-23T07:22:32;100982.69;;;6.58;100.00
80128;BME280;69440;52.118;5.408;2024-03-23T07:25:01;100994.91;;;6.64;100.00
80128;BME280;69440;52.118;5.408;2024-03-23T07:27:30;100988.38;;;6.71;100.00
80128;BME280;69440;52.118;5.408;2024-03-23T07:29:55;100997.91;;;6.78;100.00
80128;BME280;69440;52.118;5.408;2024-03-23T07:32:21;100996.66;;;6.87;100.00
80128;BME280;69440;52.118;5.408;2024-03-23T07:34:47;100992.28;;;7.06;100.00
80128;BME280;69440;52.118;5.408;2024-03-23T07:37:16;100995.50;;;7.14;100.00
80128;BME280;69440;52.118;5.408;2024-03-23T07:39:42;100981.47;;;7.09;100.00
80128;BME280;69440;52.118;5.408;2024-03-23T07:42:17;100997.25;;;7.15;100.00
80128;BME280;69440;52.118;5.408;2024-03-23T07:44:43;100986.81;;;7.29;100.00
80128;BME280;69440;52.118;5.408;2024-03-23T07:47:08;100993.66;;;7.36;100.00
80128;BME280;69440;52.118;5.408;2024-03-23T07:49:34;100999.81;;;7.38;100.00
80128;BME280;69440;52.118;5.408;2024-03-23T07:51:59;101002.22;;;7.44;100.00
80128;BME280;69440;52.118;5.408;2024-03-23T07:54:25;100989.66;;;7.46;100.00
80128;BME280;69440;52.118;5.408;2024-03-23T07:56:58;100990.03;;;7.58;100.00
80128;BME280;69440;52.118;5.408;2024-03-23T08:00:03;100994.13;;;7.66;100.00
80128;BME280;69440;52.118;5.408;2024-03-23T08:02:32;100991.91;;;7.56;100.00
80128;BME280;69440;52.118;5.408;2024-03-23T08:05:06;100988.88;;;7.63;100.00
80128;BME280;69440;52.118;5.408;2024-03-23T08:07:33;100989.75;;;7.64;100.00
80128;BME280;69440;52.118;5.408;2024-03-23T08:09:59;100988.00;;;7.63;100.00
80128;BME280;69440;52.118;5.408;2024-03-23T08:12:25;100977.06;;;7.69;100.00
80128;BME280;69440;52.118;5.408;2024-03-23T08:14:51;100984.38;;;7.84;100.00
80128;BME280;69440;52.118;5.408;2024-03-23T08:17:16;100986.84;;;7.89;100.00
80128;BME280;69440;52.118;5.408;2024-03-23T08:19:42;100990.22;;;8.13;100.00
80128;BME280;69440;52.118;5.408;2024-03-23T08:22:07;100981.88;;;8.19;99.95
80128;BME280;69440;52.118;5.408;2024-03-23T08:24:34;100977.19;;;8.05;98.66
80128;BME280;69440;52.118;5.408;2024-03-23T08:26:59;100978.28;;;8.01;97.99
80128;BME280;69440;52.118;5.408;2024-03-23T08:29:25;100987.19;;;8.20;98.25
80128;BME280;69440;52.118;5.408;2024-03-23T08:31:51;100985.97;;;8.27;97.90
80128;BME280;69440;52.118;5.408;2024-03-23T08:34:16;100989.50;;;8.28;98.34
80128;BME280;69440;52.118;5.408;2024-03-23T08:36:42;100979.75;;;8.46;99.29
80128;BME280;69440;52.118;5.408;2024-03-23T08:39:07;100990.78;;;8.58;98.25
80128;BME280;69440;52.118;5.408;2024-03-23T08:41:33;100997.06;;;8.57;95.87
80128;BME280;69440;52.118;5.408;2024-03-23T08:43:58;100986.06;;;8.63;95.02
80128;BME280;69440;52.118;5.408;2024-03-23T08:46:24;100991.84;;;8.54;94.81
80128;BME280;69440;52.118;5.408;2024-03-23T08:48:49;100989.03;;;8.57;92.64
80128;BME280;69440;52.118;5.408;2024-03-23T08:51:16;100993.28;;;8.61;91.67
80128;BME280;69440;52.118;5.408;2024-03-23T08:53:42;100981.34;;;8.68;89.62
80128;BME280;69440;52.118;5.408;2024-03-23T08:56:09;100979.13;;;8.77;90.78
80128;BME280;69440;52.118;5.408;2024-03-23T08:58:36;100983.09;;;8.87;87.17
80128;BME280;69440;52.118;5.408;2024-03-23T09:01:11;100978.00;;;8.99;87.62
80128;BME280;69440;52.118;5.408;2024-03-23T09:03:38;100970.63;;;9.22;89.05
80128;BME280;69440;52.118;5.408;2024-03-23T09:06:11;100970.69;;;9.38;87.07
80128;BME280;69440;52.118;5.408;2024-03-23T09:08:37;100966.09;;;9.40;84.05
80128;BME280;69440;52.118;5.408;2024-03-23T09:11:11;100967.66;;;9.44;82.42
80128;BME280;69440;52.118;5.408;2024-03-23T09:13:38;100960.72;;;9.57;83.12
80128;BME280;69440;52.118;5.408;2024-03-23T09:16:04;100978.94;;;9.68;80.85
80128;BME280;69440;52.118;5.408;2024-03-23T09:18:34;100988.59;;;9.54;85.37
80128;BME280;69440;52.118;5.408;2024-03-23T09:21:01;100979.50;;;9.05;89.33
80128;BME280;69440;52.118;5.408;2024-03-23T09:23:26;100974.00;;;8.72;91.74
80128;BME280;69440;52.118;5.408;2024-03-23T09:25:52;100978.59;;;8.32;95.06
80128;BME280;69440;52.118;5.408;2024-03-23T09:28:18;100979.66;;;8.09;96.53
80128;BME280;69440;52.118;5.408;2024-03-23T09:30:46;100969.78;;;7.91;98.36
80128;BME280;69440;52.118;5.408;2024-03-23T09:33:12;100961.69;;;7.74;97.86
80128;BME280;69440;52.118;5.408;2024-03-23T09:35:44;100976.78;;;7.75;100.00
80128;BME280;69440;52.118;5.408;2024-03-23T09:38:12;100967.53;;;7.82;100.00
80128;BME280;69440;52.118;5.408;2024-03-23T09:40:41;100973.13;;;8.15;100.00
80128;BME280;69440;52.118;5.408;2024-03-23T09:43:12;100969.09;;;8.25;100.00
80128;BME280;69440;52.118;5.408;2024-03-23T09:45:41;100981.97;;;7.98;99.44
80128;BME280;69440;52.118;5.408;2024-03-23T09:48:10;100988.34;;;7.75;100.00
80128;BME280;69440;52.118;5.408;2024-03-23T09:50:40;100984.00;;;7.32;100.00
80128;BME280;69440;52.118;5.408;2024-03-23T09:53:11;100976.44;;;7.01;100.00
80128;BME280;69440;52.118;5.408;2024-03-23T09:55:37;100972.34;;;6.93;100.00
80128;BME280;69440;52.118;5.408;2024-03-23T09:58:04;100978.88;;;6.85;100.00
80128;BME280;69440;52.118;5.408;2024-03-23T10:00:34;100973.31;;;7.12;100.00
80128;BME280;69440;52.118;5.408;2024-03-23T10:03:00;100963.56;;;7.52;100.00
80128;BME280;69440;52.118;5.408;2024-03-23T10:05:29;100965.59;;;7.86;100.00
80128;BME280;69440;52.118;5.408;2024-03-23T10:07:56;100961.63;;;8.13;100.00
80128;BME280;69440;52.118;5.408;2024-03-23T10:10:24;100956.44;;;8.29;100.00
80128;BME280;69440;52.118;5.408;2024-03-23T10:12:50;100958.03;;;8.52;100.00
80128;BME280;69440;52.118;5.408;2024-03-23T10:15:21;100940.03;;;8.73;95.58
80128;BME280;69440;52.118;5.408;2024-03-23T10:17:47;100954.19;;;9.11;96.63
80128;BME280;69440;52.118;5.408;2024-03-23T10:20:13;100947.94;;;9.45;92.16
80128;BME280;69440;52.118;5.408;2024-03-23T10:22:44;100935.78;;;9.55;88.43
80128;BME280;69440;52.118;5.408;2024-03-23T10:25:10;100938.34;;;9.06;88.66
80128;BME280;69440;52.118;5.408;2024-03-23T10:27:36;100963.97;;;8.58;89.33
80128;BME280;69440;52.118;5.408;2024-03-23T10:30:15;100964.94;;;8.57;91.32
80128;BME280;69440;52.118;5.408;2024-03-23T10:32:41;100953.94;;;8.98;93.33
80128;BME280;69440;52.118;5.408;2024-03-23T10:35:20;100955.94;;;9.29;89.62
80128;BME280;69440;52.118;5.408;2024-03-23T10:37:48;100943.94;;;9.53;88.58
80128;BME280;69440;52.118;5.408;2024-03-23T10:40:17;100934.31;;;9.82;88.43
80128;BME280;69440;52.118;5.408;2024-03-23T10:42:44;100945.25;;;9.95;82.32
80128;BME280;69440;52.118;5.408;2024-03-23T10:45:10;100951.06;;;9.70;77.46
80128;BME280;69440;52.118;5.408;2024-03-23T10:47:36;100935.88;;;9.86;83.54
80128;BME280;69440;52.118;5.408;2024-03-23T10:50:06;100947.94;;;9.62;82.52
80128;BME280;69440;52.118;5.408;2024-03-23T10:52:34;100980.16;;;9.27;81.51
80128;BME280;69440;52.118;5.408;2024-03-23T10:55:04;100973.00;;;8.56;88.35
80128;BME280;69440;52.118;5.408;2024-03-23T10:57:42;100977.13;;;8.06;93.63
80128;BME280;69440;52.118;5.408;2024-03-23T11:00:10;100971.44;;;7.94;96.52
80128;BME280;69440;52.118;5.408;2024-03-23T11:02:36;100974.41;;;7.88;95.56
80128;BME280;69440;52.118;5.408;2024-03-23T11:05:01;100976.63;;;7.98;97.30
80128;BME280;69440;52.118;5.408;2024-03-23T11:07:28;100960.09;;;8.26;95.69
80128;BME280;69440;52.118;5.408;2024-03-23T11:09:54;100959.59;;;8.56;93.47
80128;BME280;69440;52.118;5.408;2024-03-23T11:14:57;100942.44;;;9.30;88.64
80128;BME280;69440;52.118;5.408;2024-03-23T11:17:25;100947.66;;;9.51;86.49
80128;BME280;69440;52.118;5.408;2024-03-23T11:20:00;100935.28;;;9.81;83.44
80128;BME280;69440;52.118;5.408;2024-03-23T11:22:57;100956.81;;;10.13;81.38
80128;BME280;69440;52.118;5.408;2024-03-23T11:25:23;100938.34;;;9.74;81.34
80128;BME280;69440;52.118;5.408;2024-03-23T11:27:51;100949.22;;;9.38;81.84
80128;BME280;69440;52.118;5.408;2024-03-23T11:30:21;100948.13;;;9.24;83.73
80128;BME280;69440;52.118;5.408;2024-03-23T11:32:48;100936.66;;;9.55;84.99
80128;BME280;69440;52.118;5.408;2024-03-23T11:35:31;100936.22;;;9.96;86.20
80128;BME280;69440;52.118;5.408;2024-03-23T11:38:11;100936.72;;;10.36;77.43
80128;BME280;69440;52.118;5.408;2024-03-23T11:40:44;100939.31;;;10.69;75.85
80128;BME280;69440;52.118;5.408;2024-03-23T11:43:14;100921.47;;;11.28;75.48
80128;BME280;69440;52.118;5.408;2024-03-23T11:45:51;100914.69;;;11.50;69.21
80128;BME280;69440;52.118;5.408;2024-03-23T11:48:22;100926.94;;;11.85;68.83
80128;BME280;69440;52.118;5.408;2024-03-23T11:50:55;100904.59;;;12.79;65.64
80128;BME280;69440;52.118;5.408;2024-03-23T11:53:24;100910.69;;;13.60;57.01
80128;BME280;69440;52.118;5.408;2024-03-23T11:55:56;100908.72;;;14.37;53.80
80128;BME280;69440;52.118;5.408;2024-03-23T11:58:23;100901.09;;;14.44;56.90
80128;BME280;69440;52.118;5.408;2024-03-23T12:01:00;100898.78;;;13.76;57.78
80128;BME280;69440;52.118;5.408;2024-03-23T12:03:28;100877.91;;;15.22;53.81
80128;BME280;69440;52.118;5.408;2024-03-23T12:05:55;100892.31;;;16.03;57.11
80128;BME280;69440;52.118;5.408;2024-03-23T12:10:48;100890.66;;;15.33;50.38
80128;BME280;69440;52.118;5.408;2024-03-23T12:13:15;100912.81;;;14.06;52.60
80128;BME280;69440;52.118;5.408;2024-03-23T12:15:43;100905.75;;;12.75;54.05
80128;BME280;69440;52.118;5.408;2024-03-23T12:18:09;100902.97;;;12.08;59.93
80128;BME280;69440;52.118;5.408;2024-03-23T12:20:34;100899.84;;;11.29;59.01
80128;BME280;69440;52.118;5.408;2024-03-23T12:23:12;100898.28;;;11.98;57.93
80128;BME280;69440;52.118;5.408;2024-03-23T12:25:39;100884.22;;;13.65;55.85
80128;BME280;69440;52.118;5.408;2024-03-23T12:28:06;100879.25;;;15.17;52.92
80128;BME280;69440;52.118;5.408;2024-03-23T12:30:39;100869.63;;;16.26;45.99
80128;BME280;69440;52.118;5.408;2024-03-23T12:33:05;100864.91;;;14.69;50.15
80128;BME280;69440;52.118;5.408;2024-03-23T12:35:31;100872.75;;;14.60;49.09
80128;BME280;69440;52.118;5.408;2024-03-23T12:37:57;100859.84;;;14.04;49.15
80128;BME280;69440;52.118;5.408;2024-03-23T12:40:23;100881.00;;;12.95;52.95
80128;BME280;69440;52.118;5.408;2024-03-23T12:42:48;100884.72;;;11.99;53.67
80128;BME280;69440;52.118;5.408;2024-03-23T12:45:14;100880.38;;;11.97;57.48
80128;BME280;69440;52.118;5.408;2024-03-23T12:47:40;100885.63;;;12.12;54.95
80128;BME280;69440;52.118;5.408;2024-03-23T12:50:06;100878.94;;;12.05;54.95
80128;BME280;69440;52.118;5.408;2024-03-23T12:52:35;100896.66;;;11.81;57.41
80128;BME280;69440;52.118;5.408;2024-03-23T12:55:01;100870.84;;;11.34;58.40
80128;BME280;69440;52.118;5.408;2024-03-23T12:57:27;100875.69;;;12.54;55.31
80128;BME280;69440;52.118;5.408;2024-03-23T12:59:52;100865.69;;;13.97;52.62
80128;BME280;69440;52.118;5.408;2024-03-23T13:02:21;100864.91;;;14.93;51.05
80128;BME280;69440;52.118;5.408;2024-03-23T13:04:51;100876.97;;;16.46;45.79
80128;BME280;69440;52.118;5.408;2024-03-23T13:07:18;100848.38;;;17.06;43.20
80128;BME280;69440;52.118;5.408;2024-03-23T13:09:45;100851.78;;;16.56;45.04
80128;BME280;69440;52.118;5.408;2024-03-23T13:12:11;100862.25;;;14.45;47.91
80128;BME280;69440;52.118;5.408;2024-03-23T13:14:39;100865.47;;;12.99;51.59
80128;BME280;69440;52.118;5.408;2024-03-23T13:17:06;100862.25;;;14.08;52.93
80128;BME280;69440;52.118;5.408;2024-03-23T13:19:33;100877.78;;;16.04;45.33
80128;BME280;69440;52.118;5.408;2024-03-23T13:22:00;100879.88;;;13.88;46.78
80128;BME280;69440;52.118;5.408;2024-03-23T13:24:26;100872.28;;;12.11;50.15
80128;BME280;69440;52.118;5.408;2024-03-23T13:26:54;100912.22;;;10.87;55.76
80128;BME280;69440;52.118;5.408;2024-03-23T13:29:20;100935.16;;;10.16;57.82
80128;BME280;69440;52.118;5.408;2024-03-23T13:31:46;100932.50;;;9.83;60.96
80128;BME280;69440;52.118;5.408;2024-03-23T13:34:13;100908.56;;;9.78;68.18
80128;BME280;69440;52.118;5.408;2024-03-23T13:36:44;100893.75;;;11.11;68.35
80128;BME280;69440;52.118;5.408;2024-03-23T13:39:10;100884.50;;;12.70;57.79
80128;BME280;69440;52.118;5.408;2024-03-23T13:41:45;100907.66;;;12.87;57.68
80128;BME280;69440;52.118;5.408;2024-03-23T13:44:12;100868.47;;;13.59;52.09
80128;BME280;69440;52.118;5.408;2024-03-23T13:46:39;100871.50;;;16.03;49.72
80128;BME280;69440;52.118;5.408;2024-03-23T13:49:05;100855.41;;;17.51;42.80
80128;BME280;69440;52.118;5.408;2024-03-23T13:51:32;100852.78;;;16.55;43.50